Time;durP1;ratioP1;P1;durP2;ratioP2;P2;SDS_P1;SDS_P2;PMS_P1;PMS_P2;Temp;Humidity;BMP_temperature;BMP_pressure;BME280_temperature;BME280_humidity;BME280_pressure;Samples;Min_cycle;Max_cycle;Signal;HPM_P1;HPM_P2
2022/04/27 00:01:16;;;;;;;9.40;9.00;;;;;;;11.88;75.09;92731.47;5090575;28;20266;-82
2022/04/27 00:03:42;;;;;;;9.13;8.67;;;;;;;11.75;75.39;92715.69;5089439;28;20192;-83
2022/04/27 00:06:08;;;;;;;8.67;8.27;;;;;;;11.30;76.38;92668.13;5090447;28;20239;-83
2022/04/27 00:08:34;;;;;;;10.17;9.67;;;;;;;11.43;76.76;92692.81;5089392;28;20200;-82
2022/04/27 00:10:59;;;;;;;9.30;8.87;;;;;;;11.65;76.38;92721.84;5089644;28;20236;-83
2022/04/27 00:13:25;;;;;;;9.00;8.43;;;;;;;11.52;77.55;92735.56;5088918;28;20189;-86
2022/04/27 00:15:51;;;;;;;10.00;9.50;;;;;;;11.31;78.79;92729.78;5089291;28;20174;-83
2022/04/27 00:18:16;;;;;;;10.37;9.87;;;;;;;11.17;78.45;92718.47;5089920;28;20227;-82
2022/04/27 00:20:41;;;;;;;12.37;11.50;;;;;;;11.31;78.84;92731.66;5089216;28;20195;-82
2022/04/27 00:23:08;;;;;;;10.93;10.33;;;;;;;11.22;79.44;92739.31;5072163;28;20191;-83
2022/04/27 00:25:34;;;;;;;10.70;10.10;;;;;;;11.09;79.51;92729.56;5089360;28;20190;-82
2022/04/27 00:27:59;;;;;;;9.57;9.07;;;;;;;10.95;80.54;92710.38;5088851;28;20204;-82
2022/04/27 00:30:25;;;;;;;9.10;8.50;;;;;;;10.99;80.65;92734.88;5089958;28;20193;-82
2022/04/27 00:32:50;;;;;;;9.23;8.83;;;;;;;10.91;80.97;92716.44;5088133;28;20292;-83
2022/04/27 00:35:15;;;;;;;9.63;9.03;;;;;;;10.82;80.65;92705.78;5048867;28;20200;-82
2022/04/27 00:37:41;;;;;;;9.90;9.30;;;;;;;10.80;81.07;92720.94;5086249;28;20233;-82
2022/04/27 00:40:06;;;;;;;10.03;9.27;;;;;;;10.71;81.62;92724.44;5086074;28;20212;-84
2022/04/27 00:42:32;;;;;;;9.30;8.87;;;;;;;10.61;81.47;92711.50;5088133;28;20221;-82
2022/04/27 00:44:58;;;;;;;9.80;9.40;;;;;;;10.66;81.18;92725.28;5089659;28;23022;-83
2022/04/27 00:47:23;;;;;;;9.80;9.30;;;;;;;10.42;81.93;92711.41;5086562;28;20224;-81
2022/04/27 00:49:51;;;;;;;10.13;9.60;;;;;;;10.66;81.66;92746.16;5088294;28;20266;-82
2022/04/27 00:52:18;;;;;;;9.20;8.60;;;;;;;10.49;82.58;92740.56;5088600;28;20232;-82
2022/04/27 00:54:47;;;;;;;10.27;9.53;;;;;;;10.40;82.78;92731.78;5088639;28;20193;-81
2022/04/27 00:57:12;;;;;;;10.00;9.40;;;;;;;10.49;83.12;92737.19;5069652;28;20244;-83
2022/04/27 00:59:39;;;;;;;10.00;9.53;;;;;;;10.58;82.58;92746.78;5089295;28;20182;-82
2022/04/27 01:02:05;;;;;;;9.27;8.77;;;;;;;10.39;82.93;92717.19;5087831;28;20282;-82
2022/04/27 01:04:33;;;;;;;9.63;8.93;;;;;;;10.54;82.63;92743.13;5089728;28;20200;-82
2022/04/27 01:06:59;;;;;;;10.27;9.70;;;;;;;10.50;83.29;92754.41;5087966;28;20270;-83
2022/04/27 01:09:25;;;;;;;9.20;8.70;;;;;;;10.49;83.43;92743.19;5089610;28;20181;-82
2022/04/27 01:11:52;;;;;;;9.57;9.07;;;;;;;10.22;82.92;92708.97;5088943;28;20293;-82
2022/04/27 01:14:17;;;;;;;9.23;8.73;;;;;;;10.15;83.94;92713.72;5089577;28;20193;-84
2022/04/27 01:16:43;;;;;;;9.97;9.27;;;;;;;10.45;83.42;92747.41;5088353;28;20239;-81
2022/04/27 01:19:08;;;;;;;10.23;9.63;;;;;;;10.31;83.65;92740.47;5087370;28;20230;-82
2022/04/27 01:21:34;;;;;;;10.23;9.73;;;;;;;10.34;83.56;92735.47;5088951;28;20232;-82
2022/04/27 01:24:00;;;;;;;9.37;8.97;;;;;;;10.29;83.87;92747.81;5086222;28;20165;-82
2022/04/27 01:26:25;;;;;;;10.73;10.13;;;;;;;10.18;84.22;92744.47;5089003;28;20225;-82
2022/04/27 01:28:51;;;;;;;10.87;10.20;;;;;;;10.25;84.19;92739.72;5072029;28;20291;-82
2022/04/27 01:31:16;;;;;;;10.37;9.77;;;;;;;10.10;84.43;92736.47;5088934;28;20296;-82
2022/04/27 01:33:42;;;;;;;10.07;9.47;;;;;;;10.00;85.04;92744.31;5089408;28;20252;-82
2022/04/27 01:36:09;;;;;;;10.67;10.07;;;;;;;10.07;85.20;92742.97;5089386;28;20268;-82
2022/04/27 01:38:40;;;;;;;9.90;9.47;;;;;;;10.09;83.85;92727.06;5088833;28;20225;-82
2022/04/27 01:41:06;;;;;;;9.67;9.27;;;;;;;9.90;84.32;92713.84;5089323;28;20232;-83
2022/04/27 01:43:33;;;;;;;9.97;9.40;;;;;;;9.94;84.39;92719.31;5089973;28;20257;-82
2022/04/27 01:45:58;;;;;;;9.27;8.87;;;;;;;10.01;84.34;92732.84;5087213;28;20250;-83
2022/04/27 01:48:24;;;;;;;9.80;9.40;;;;;;;9.95;84.57;92729.47;5088584;28;20212;-81
2022/04/27 01:50:49;;;;;;;10.17;9.57;;;;;;;9.75;85.58;92727.00;5088631;28;20181;-82
2022/04/27 01:56:03;;;;;;;9.10;8.70;;;;;;;9.65;85.44;92712.19;5073255;28;20275;-82
2022/04/27 01:58:29;;;;;;;9.37;8.93;;;;;;;9.53;85.59;92695.31;5065965;28;20284;-82
2022/04/27 02:00:57;;;;;;;10.60;10.00;;;;;;;9.50;85.74;92708.91;5088100;28;20220;-84
2022/04/27 02:03:24;;;;;;;9.83;8.80;;;;;;;9.70;85.56;92734.84;5086414;28;20176;-83
2022/04/27 02:05:52;;;;;;;10.10;9.23;;;;;;;9.57;85.32;92704.19;5088896;28;20256;-82
2022/04/27 02:08:18;;;;;;;8.97;8.47;;;;;;;9.54;86.16;92715.91;5088368;28;20189;-82
2022/04/27 02:10:43;;;;;;;9.90;9.20;;;;;;;9.60;85.37;92712.22;5087772;28;20173;-82
2022/04/27 02:13:10;;;;;;;9.93;9.30;;;;;;;9.72;85.07;92727.53;5091695;28;20222;-82
2022/04/27 02:15:36;;;;;;;10.17;9.50;;;;;;;9.49;85.96;92708.09;5091458;28;20181;-82
2022/04/27 02:18:02;;;;;;;10.40;9.90;;;;;;;9.44;86.94;92728.22;5076257;28;20799;-83
2022/04/27 02:20:28;;;;;;;9.63;9.07;;;;;;;9.37;86.48;92709.50;5091969;28;20192;-82
2022/04/27 02:22:54;;;;;;;9.70;9.30;;;;;;;9.45;86.75;92725.34;5090340;28;20226;-82
2022/04/27 02:25:21;;;;;;;9.93;9.43;;;;;;;9.42;86.95;92725.88;5092194;28;20181;-82
2022/04/27 02:27:47;;;;;;;10.17;9.67;;;;;;;9.52;86.23;92727.66;5091595;28;20232;-82
2022/04/27 02:30:13;;;;;;;8.33;7.87;;;;;;;9.50;86.21;92734.97;5091624;28;20216;-82
2022/04/27 02:32:39;;;;;;;9.63;9.00;;;;;;;9.61;86.58;92731.25;5091937;28;20814;-82
2022/04/27 02:35:06;;;;;;;9.87;9.13;;;;;;;9.44;86.87;92731.59;5090813;28;20184;-81
2022/04/27 02:37:32;;;;;;;10.07;9.57;;;;;;;9.13;87.31;92683.31;5090652;28;20327;-83
2022/04/27 02:39:58;;;;;;;11.70;10.93;;;;;;;9.43;87.32;92734.47;5092155;28;20181;-82
2022/04/27 02:42:24;;;;;;;10.33;9.70;;;;;;;9.30;87.63;92719.44;5091617;28;20228;-82
2022/04/27 02:44:49;;;;;;;10.73;9.97;;;;;;;9.22;88.35;92720.75;5090149;28;20193;-83
2022/04/27 02:47:15;;;;;;;11.37;10.77;;;;;;;9.22;88.24;92712.16;5089818;28;20250;-85
2022/04/27 02:52:25;;;;;;;10.67;9.97;;;;;;;9.32;87.80;92735.56;5091628;28;20300;-83
2022/04/27 02:54:50;;;;;;;10.97;10.20;;;;;;;9.10;88.51;92706.50;5090232;28;20188;-84
2022/04/27 02:57:16;;;;;;;10.33;9.80;;;;;;;9.14;88.73;92736.16;5090528;28;20315;-84
2022/04/27 02:59:43;;;;;;;9.47;8.97;;;;;;;9.15;88.93;92732.53;5091873;28;20283;-84
2022/04/27 03:02:08;;;;;;;10.37;9.67;;;;;;;8.98;89.01;92711.22;5090099;28;20303;-85
2022/04/27 03:04:33;;;;;;;9.00;8.47;;;;;;;9.07;89.13;92720.03;5092584;28;20192;-84
2022/04/27 03:06:59;;;;;;;10.40;10.00;;;;;;;9.01;89.43;92721.88;5091062;28;20217;-84
2022/04/27 03:09:25;;;;;;;10.23;9.63;;;;;;;8.78;89.05;92690.47;5090520;28;20192;-85
2022/04/27 03:11:50;;;;;;;10.63;10.13;;;;;;;9.01;89.13;92715.91;5092177;28;20233;-85
2022/04/27 03:14:16;;;;;;;10.67;10.17;;;;;;;8.72;89.90;92713.13;5090467;28;20189;-85
2022/04/27 03:16:41;;;;;;;11.87;11.17;;;;;;;8.99;89.82;92738.81;5090887;28;20262;-83
2022/04/27 03:19:06;;;;;;;11.30;10.27;;;;;;;9.01;89.77;92734.13;5091639;28;20211;-84
2022/04/27 03:21:32;;;;;;;10.50;10.00;;;;;;;8.82;89.36;92718.31;5090745;28;20225;-84
2022/04/27 03:23:58;;;;;;;11.10;10.17;;;;;;;8.98;89.87;92740.63;5089512;28;20212;-84
2022/04/27 03:26:24;;;;;;;10.37;9.50;;;;;;;9.01;90.28;92739.34;5090205;28;20247;-83
2022/04/27 03:28:50;;;;;;;10.97;10.27;;;;;;;9.05;90.08;92746.34;5088637;28;20177;-83
2022/04/27 03:31:15;;;;;;;10.97;10.47;;;;;;;8.82;90.22;92718.31;5090695;28;20223;-84
2022/04/27 03:33:41;;;;;;;11.50;10.70;;;;;;;9.06;89.52;92734.09;5090373;28;20196;-84
2022/04/27 03:36:08;;;;;;;11.27;10.63;;;;;;;9.15;89.52;92750.75;5090685;28;20249;-83
2022/04/27 03:38:35;;;;;;;11.60;10.80;;;;;;;8.92;89.19;92723.47;5089331;28;20244;-84
2022/04/27 03:41:00;;;;;;;10.97;10.30;;;;;;;9.19;89.05;92755.16;5090945;28;20258;-84
2022/04/27 03:43:26;;;;;;;10.57;10.07;;;;;;;9.25;88.30;92745.50;5091511;28;20220;-84
2022/04/27 03:45:51;;;;;;;11.00;10.47;;;;;;;9.38;87.95;92763.16;5090629;28;20240;-84
2022/04/27 03:48:17;;;;;;;11.07;10.03;;;;;;;9.51;87.10;92763.34;5089904;28;20192;-82
2022/04/27 03:50:43;;;;;;;11.40;10.90;;;;;;;9.54;86.94;92765.41;5090273;28;20256;-88
2022/04/27 03:53:09;;;;;;;11.63;10.93;;;;;;;9.57;87.29;92766.72;5090146;28;20181;-78
2022/04/27 03:55:35;;;;;;;12.03;10.83;;;;;;;9.40;87.70;92764.44;5086483;28;20219;-79
2022/04/27 03:58:04;;;;;;;11.50;10.63;;;;;;;9.27;88.49;92764.25;5090204;28;20213;-86
2022/04/27 04:00:30;;;;;;;10.50;10.00;;;;;;;9.48;88.22;92766.50;5089064;28;20714;-83
2022/04/27 04:02:58;;;;;;;10.63;10.03;;;;;;;9.65;86.80;92776.56;5072391;28;20209;-85
2022/04/27 04:05:24;;;;;;;10.80;10.23;;;;;;;9.90;86.21;92773.06;5089198;28;20223;-85
2022/04/27 04:07:49;;;;;;;10.53;9.63;;;;;;;9.91;86.03;92772.00;5088359;28;20221;-84
2022/04/27 04:10:14;;;;;;;12.17;11.37;;;;;;;10.08;85.63;92786.28;5072901;28;20184;-77
2022/04/27 04:12:40;;;;;;;12.13;11.13;;;;;;;10.05;85.38;92771.16;5088750;28;20221;-77
2022/04/27 04:15:06;;;;;;;11.53;10.80;;;;;;;10.14;85.54;92787.81;5089887;28;20223;-78
2022/04/27 04:17:31;;;;;;;9.87;9.30;;;;;;;10.32;85.50;92789.75;5089034;28;20284;-75
2022/04/27 04:19:57;;;;;;;11.33;10.63;;;;;;;10.38;85.14;92804.34;5088435;28;20236;-77
2022/04/27 04:22:22;;;;;;;10.40;9.90;;;;;;;10.44;85.03;92802.47;5088341;28;20221;-82
2022/04/27 04:30:16;;;;;;;10.80;10.07;;;;;;;11.07;82.51;92788.34;5087243;28;20305;-79
2022/04/27 04:32:43;;;;;;;11.03;10.43;;;;;;;10.95;81.50;92749.56;5088512;28;20229;-88
2022/04/27 04:35:09;;;;;;;11.90;11.10;;;;;;;11.59;80.10;92798.75;5087525;28;20180;-88
2022/04/27 04:37:34;;;;;;;10.47;9.93;;;;;;;11.66;79.03;92794.00;5087771;28;20220;-87
2022/04/27 04:40:00;;;;;;;11.17;10.47;;;;;;;11.64;79.67;92792.72;5087974;28;20203;-88
2022/04/27 04:42:25;;;;;;;10.67;10.07;;;;;;;11.85;79.46;92812.31;5084903;28;20228;-88
2022/04/27 04:44:50;;;;;;;10.70;10.07;;;;;;;11.86;79.84;92816.53;5088512;28;20354;-85
2022/04/27 04:47:16;;;;;;;11.13;10.47;;;;;;;11.80;80.45;92815.03;5085851;28;20233;-87
2022/04/27 04:49:42;;;;;;;12.27;11.00;;;;;;;11.82;80.05;92789.34;5085741;28;20225;-88
2022/04/27 04:52:07;;;;;;;17.03;15.83;;;;;;;12.31;79.41;92826.38;5087865;28;20244;-88
2022/04/27 04:54:34;;;;;;;11.67;10.87;;;;;;;12.20;80.16;92820.50;5088713;28;20193;-87
2022/04/27 04:56:59;;;;;;;11.97;11.17;;;;;;;12.17;79.84;92784.41;5088407;28;20226;-85
2022/04/27 04:59:25;;;;;;;11.40;10.53;;;;;;;12.44;79.63;92820.44;5088315;28;20214;-84
2022/04/27 05:01:50;;;;;;;12.40;11.63;;;;;;;12.35;80.54;92827.38;5086161;28;20221;-86
2022/04/27 05:04:16;;;;;;;13.13;12.23;;;;;;;12.36;80.46;92827.09;5089447;28;20417;-89
2022/04/27 05:06:43;;;;;;;13.47;12.57;;;;;;;12.53;79.52;92831.81;5090097;28;20239;-89
2022/04/27 05:09:08;;;;;;;12.63;11.57;;;;;;;12.44;80.50;92836.91;5090552;28;20200;-88
2022/04/27 05:11:34;;;;;;;12.07;11.17;;;;;;;12.46;80.34;92834.03;5087461;28;20231;-89
2022/04/27 05:13:59;;;;;;;12.13;11.30;;;;;;;12.64;79.55;92822.75;5088868;28;20212;-88
2022/04/27 05:16:25;;;;;;;12.50;11.60;;;;;;;12.84;78.09;92840.78;5087393;28;20240;-84
2022/04/27 05:18:50;;;;;;;12.27;11.57;;;;;;;12.92;77.61;92837.50;5088046;28;20213;-87
2022/04/27 05:21:16;;;;;;;10.70;10.03;;;;;;;13.23;76.04;92846.44;5088307;28;20237;-88
2022/04/27 05:23:42;;;;;;;11.53;10.73;;;;;;;13.79;74.28;92844.38;5086947;28;20169;-87
2022/04/27 05:26:08;;;;;;;13.40;12.30;;;;;;;14.34;72.36;92843.28;5085521;28;20228;-83
2022/04/27 05:31:53;;;;;;;11.33;10.60;;;;;;;15.25;68.54;92834.06;5089782;28;20193;-85
2022/04/27 05:34:03;;;;;;;11.80;11.03;;;;;;;19.08;55.50;92853.28;5087687;28;20199;-81
2022/04/27 05:36:29;;;;;;;11.30;10.50;;;;;;;21.17;48.51;92851.72;5058526;28;20288;-80
2022/04/27 05:38:54;;;;;;;10.63;9.73;;;;;;;23.22;43.25;92859.06;5086995;28;20251;-80
2022/04/27 05:41:20;;;;;;;10.47;9.70;;;;;;;24.39;40.02;92852.88;5087787;28;20247;-81
2022/04/27 05:43:47;;;;;;;10.17;9.57;;;;;;;23.55;41.38;92872.66;5088356;28;20199;-80
2022/04/27 05:46:12;;;;;;;9.33;8.83;;;;;;;23.99;40.00;92844.56;5088388;28;20266;-79
2022/04/27 05:48:38;;;;;;;9.77;8.98;;;;;;;24.12;39.64;92861.19;5092614;28;20190;-79
2022/04/27 05:51:03;;;;;;;11.73;8.85;;;;;;;25.88;35.86;92867.91;5091481;28;20231;-79
2022/04/27 05:53:29;;;;;;;9.80;9.10;;;;;;;27.31;33.00;92866.81;5073224;28;20535;-85
2022/04/27 05:55:54;;;;;;;9.90;9.02;;;;;;;25.73;35.23;92855.50;5092290;28;20230;-85
2022/04/27 05:58:19;;;;;;;10.45;9.35;;;;;;;25.69;36.22;92870.75;5091898;28;20278;-81
2022/04/27 06:00:46;;;;;;;10.48;9.65;;;;;;;27.38;32.93;92869.53;5091378;28;20218;-81
2022/04/27 06:03:12;;;;;;;9.85;9.07;;;;;;;28.49;31.67;92875.63;5092729;28;20243;-81
2022/04/27 06:05:37;;;;;;;9.77;9.10;;;;;;;29.46;29.96;92882.88;5092594;28;20185;-79
2022/04/27 06:08:03;;;;;;;10.50;9.80;;;;;;;29.72;28.50;92881.66;5091681;28;20181;-80
2022/04/27 06:10:28;;;;;;;10.52;9.63;;;;;;;26.79;33.91;92876.03;5089764;28;20207;-80
2022/04/27 06:12:54;;;;;;;9.52;8.93;;;;;;;27.96;31.68;92875.53;5091158;28;20217;-80
2022/04/27 06:15:19;;;;;;;9.90;9.20;;;;;;;25.44;36.76;92867.00;5092296;28;20242;-80
2022/04/27 06:17:45;;;;;;;10.02;9.23;;;;;;;23.13;40.86;92855.84;5090299;28;20231;-83
2022/04/27 06:20:10;;;;;;;10.63;9.85;;;;;;;21.67;44.14;92866.00;5090243;28;20181;-81
2022/04/27 06:22:36;;;;;;;10.07;9.48;;;;;;;19.81;49.07;92868.34;5090766;28;21062;-79
2022/04/27 06:25:04;;;;;;;10.95;10.15;;;;;;;18.31;54.12;92866.19;5090747;28;20220;-79
2022/04/27 06:27:29;;;;;;;11.73;10.82;;;;;;;17.75;56.61;92863.94;5089700;28;20224;-77
2022/04/27 06:29:55;;;;;;;11.63;10.73;;;;;;;17.16;58.36;92831.28;5088927;28;20179;-75
2022/04/27 06:32:20;;;;;;;11.67;10.77;;;;;;;17.04;59.69;92855.66;5089297;28;20250;-77
2022/04/27 06:34:46;;;;;;;11.33;10.37;;;;;;;17.32;58.79;92851.59;5091077;28;20194;-83
2022/04/27 06:37:11;;;;;;;12.30;11.20;;;;;;;16.74;61.10;92859.25;5088444;28;20260;-82
2022/04/27 06:39:38;;;;;;;12.40;11.40;;;;;;;16.39;62.54;92849.69;5090163;28;20282;-82
2022/04/27 06:42:05;;;;;;;12.27;11.47;;;;;;;16.03;63.61;92857.81;5090994;28;20231;-83
2022/04/27 06:44:32;;;;;;;13.00;11.60;;;;;;;16.11;64.02;92832.59;5095821;28;20188;-84
2022/04/27 06:46:58;;;;;;;12.30;11.40;;;;;;;15.69;64.82;92851.63;5089127;28;20224;-84
2022/04/27 06:49:23;;;;;;;12.83;11.87;;;;;;;15.86;65.23;92856.97;5089700;28;20192;-84
2022/04/27 06:51:48;;;;;;;11.37;10.37;;;;;;;16.37;63.17;92851.09;5073433;28;20594;-82
2022/04/27 06:54:14;;;;;;;12.00;11.23;;;;;;;16.69;61.95;92859.38;5091759;28;20684;-84
2022/04/27 06:56:40;;;;;;;13.33;11.73;;;;;;;16.55;63.00;92856.13;5071503;28;20228;-84
2022/04/27 06:59:05;;;;;;;12.07;11.13;;;;;;;16.09;63.66;92840.03;5090530;28;20703;-80
2022/04/27 07:01:32;;;;;;;13.20;11.97;;;;;;;16.24;63.15;92836.97;5089817;28;20228;-81
2022/04/27 07:04:06;;;;;;;12.23;11.33;;;;;;;16.35;63.68;92861.94;5090762;28;20197;-83
2022/04/27 07:06:31;;;;;;;11.53;10.80;;;;;;;16.38;64.00;92857.91;5090573;28;20274;-83
2022/04/27 07:08:57;;;;;;;13.37;12.47;;;;;;;16.02;65.37;92848.38;5089486;28;20181;-84
2022/04/27 07:11:22;;;;;;;13.83;12.83;;;;;;;16.11;65.70;92852.91;5068107;28;20246;-83
2022/04/27 07:13:48;;;;;;;13.90;12.60;;;;;;;16.10;65.61;92857.38;5065635;28;20192;-83
2022/04/27 07:16:13;;;;;;;11.47;10.67;;;;;;;16.40;63.82;92859.16;5072064;28;20262;-82
2022/04/27 07:18:38;;;;;;;12.27;11.30;;;;;;;16.55;62.91;92855.34;5091635;28;20250;-82
2022/04/27 07:21:08;;;;;;;11.23;10.23;;;;;;;16.29;63.48;92854.47;5089158;28;20216;-83
2022/04/27 07:23:33;;;;;;;12.50;11.60;;;;;;;16.40;63.08;92832.03;5090043;28;20189;-83
2022/04/27 07:25:59;;;;;;;11.63;10.83;;;;;;;16.43;64.04;92861.19;5088369;28;20275;-83
2022/04/27 07:28:24;;;;;;;11.07;10.27;;;;;;;16.97;62.81;92855.34;5089429;28;20215;-82
2022/04/27 07:30:50;;;;;;;12.80;11.90;;;;;;;17.03;60.68;92846.19;5088309;28;20199;-84
2022/04/27 07:33:15;;;;;;;12.50;11.40;;;;;;;16.78;61.30;92815.34;5088123;28;20227;-83
2022/04/27 07:35:41;;;;;;;11.60;10.80;;;;;;;17.02;61.41;92846.50;5089345;28;20204;-83
2022/04/27 07:38:06;;;;;;;12.83;11.83;;;;;;;17.21;60.48;92842.44;5090629;28;20279;-81
2022/04/27 07:40:32;;;;;;;13.03;11.70;;;;;;;17.16;61.23;92871.66;5089239;28;20188;-76
2022/04/27 07:42:59;;;;;;;12.40;11.47;;;;;;;16.99;61.41;92874.31;5073611;28;20192;-83
2022/04/27 07:45:25;;;;;;;12.47;11.50;;;;;;;16.39;63.11;92854.22;5089135;28;20302;-82
2022/04/27 07:47:50;;;;;;;12.33;11.43;;;;;;;16.63;63.75;92855.34;5088908;28;20224;-82
2022/04/27 07:50:17;;;;;;;12.13;11.13;;;;;;;16.31;63.20;92858.34;5089949;28;20230;-83
2022/04/27 07:52:43;;;;;;;12.00;10.93;;;;;;;16.82;62.57;92863.75;5089418;28;20237;-82
2022/04/27 07:55:10;;;;;;;12.17;11.17;;;;;;;17.16;62.38;92862.94;5087804;28;20190;-77
2022/04/27 07:57:36;;;;;;;11.60;10.77;;;;;;;17.29;61.80;92851.47;5089437;28;20248;-83
2022/04/27 08:00:06;;;;;;;13.37;12.27;;;;;;;17.98;59.53;92862.63;5088708;28;20612;-85
2022/04/27 08:02:31;;;;;;;12.70;11.60;;;;;;;18.03;60.20;92852.66;5088343;28;20223;-88
2022/04/27 08:04:57;;;;;;;12.70;11.40;;;;;;;18.18;59.36;92856.63;5088939;28;20184;-87
2022/04/27 08:07:23;;;;;;;11.37;10.57;;;;;;;18.17;60.15;92865.66;5088880;28;20243;-84
2022/04/27 08:09:48;;;;;;;12.07;11.03;;;;;;;18.28;58.81;92862.34;5070041;28;20193;-85
2022/04/27 08:12:14;;;;;;;11.27;10.43;;;;;;;18.11;58.76;92864.28;5089410;28;20221;-88
2022/04/27 08:14:39;;;;;;;12.13;11.43;;;;;;;18.06;58.41;92864.44;5090302;28;20208;-85
2022/04/27 08:17:07;;;;;;;12.83;11.83;;;;;;;17.87;59.50;92856.91;5088418;28;20258;-85
2022/04/27 08:19:32;;;;;;;11.87;10.83;;;;;;;17.93;58.45;92844.31;5089948;28;20216;-84
2022/04/27 08:21:59;;;;;;;12.40;11.20;;;;;;;17.59;60.97;92845.97;5089195;28;20263;-84
2022/04/27 08:24:24;;;;;;;12.67;11.43;;;;;;;17.91;58.08;92857.06;5072047;28;20219;-85
2022/04/27 08:26:50;;;;;;;12.97;11.97;;;;;;;18.10;58.63;92863.50;5087712;28;20224;-82
2022/04/27 08:29:16;;;;;;;11.73;10.63;;;;;;;18.05;57.59;92858.41;5088351;28;20210;-86
2022/04/27 08:31:42;;;;;;;11.27;10.30;;;;;;;18.39;57.38;92854.84;5089406;28;20225;-86
2022/04/27 08:34:07;;;;;;;11.73;10.83;;;;;;;18.39;56.92;92836.31;5088787;28;20220;-86
2022/04/27 08:36:33;;;;;;;11.37;10.47;;;;;;;17.83;59.30;92839.38;5087825;28;20212;-84
2022/04/27 08:39:00;;;;;;;11.43;10.63;;;;;;;18.16;56.82;92858.81;5089217;28;20276;-83
2022/04/27 08:41:28;;;;;;;10.43;9.63;;;;;;;18.36;56.80;92852.81;5088790;28;20237;-84
2022/04/27 08:43:53;;;;;;;11.20;10.37;;;;;;;18.66;56.58;92857.00;5089747;28;20259;-84
2022/04/27 08:46:19;;;;;;;10.67;9.97;;;;;;;18.08;55.28;92846.41;5088631;28;20228;-83
2022/04/27 08:48:48;;;;;;;12.53;11.43;;;;;;;18.26;56.29;92855.78;5087362;28;20181;-85
2022/04/27 08:51:14;;;;;;;10.43;9.60;;;;;;;18.14;56.86;92851.22;5087710;28;20243;-82
2022/04/27 08:53:42;;;;;;;9.67;9.07;;;;;;;17.91;56.73;92841.22;5089849;28;20188;-83
2022/04/27 08:56:07;;;;;;;10.80;10.00;;;;;;;18.15;56.84;92846.72;5089137;28;20239;-82
2022/04/27 08:58:33;;;;;;;10.17;9.17;;;;;;;18.48;56.05;92850.25;5090618;28;20264;-85
2022/04/27 09:00:59;;;;;;;10.63;9.73;;;;;;;18.90;53.29;92841.25;5089008;28;20222;-83
2022/04/27 09:03:26;;;;;;;10.50;9.80;;;;;;;18.89;52.88;92852.94;5089459;28;20169;-82
2022/04/27 09:06:12;;;;;;;10.10;9.60;;;;;;;18.71;52.79;92848.88;5087921;28;20232;-82
2022/04/27 09:08:41;;;;;;;8.60;8.03;;;;;;;18.77;51.82;92847.59;5088583;28;20197;-84
2022/04/27 09:11:15;;;;;;;9.30;8.77;;;;;;;18.70;51.06;92847.31;5070703;28;20238;-84
2022/04/27 09:13:55;;;;;;;9.13;8.73;;;;;;;19.05;49.39;92824.81;5089161;28;20202;-84
2022/04/27 09:16:26;;;;;;;9.83;9.20;;;;;;;19.25;50.76;92834.59;5088613;28;20805;-84
2022/04/27 09:22:00;;;;;;;10.33;9.43;;;;;;;19.24;48.14;92835.66;5088265;28;20232;-80
2022/04/27 09:24:46;;;;;;;8.90;8.40;;;;;;;19.47;48.39;92842.16;5089408;28;20248;-84
2022/04/27 09:27:12;;;;;;;9.43;8.73;;;;;;;19.41;48.53;92835.53;5088672;28;20270;-83
2022/04/27 09:29:37;;;;;;;9.27;8.73;;;;;;;19.16;50.41;92833.88;5089475;28;21381;-83
2022/04/27 09:32:04;;;;;;;10.13;9.33;;;;;;;19.11;49.90;92828.81;5071482;28;20297;-84
2022/04/27 09:34:43;;;;;;;8.80;8.20;;;;;;;19.32;50.71;92820.84;5089408;28;20173;-84
2022/04/27 09:37:14;;;;;;;9.00;8.50;;;;;;;19.21;48.72;92830.28;5086846;28;20225;-80
2022/04/27 09:39:40;;;;;;;8.87;8.37;;;;;;;19.11;48.62;92815.56;5072407;28;20210;-83
2022/04/27 09:42:08;;;;;;;9.13;8.63;;;;;;;19.76;48.03;92823.50;5090483;28;20223;-84
2022/04/27 09:44:38;;;;;;;8.40;7.93;;;;;;;19.67;48.10;92828.13;5088222;28;20214;-84
2022/04/27 09:47:05;;;;;;;9.37;8.73;;;;;;;19.69;49.12;92803.94;5088558;28;20217;-85
2022/04/27 09:49:32;;;;;;;9.83;9.20;;;;;;;20.00;49.82;92815.56;5089565;28;20196;-83
2022/04/27 09:52:00;;;;;;;10.57;9.77;;;;;;;20.06;47.28;92813.47;5089205;28;20210;-84
2022/04/27 09:54:30;;;;;;;9.47;8.97;;;;;;;19.75;50.76;92808.69;5090576;28;20185;-86
2022/04/27 09:57:01;;;;;;;9.37;8.77;;;;;;;19.32;49.80;92811.03;5088368;28;20242;-86
2022/04/27 09:59:32;;;;;;;9.50;8.80;;;;;;;19.76;48.49;92783.75;5088504;28;20217;-81
2022/04/27 10:02:00;;;;;;;8.67;8.23;;;;;;;19.96;49.73;92798.00;5088788;28;20238;-85
2022/04/27 10:04:30;;;;;;;8.47;8.07;;;;;;;20.12;47.08;92812.94;5088899;28;20213;-80
2022/04/27 10:07:02;;;;;;;9.60;8.87;;;;;;;19.93;46.54;92798.66;5089411;28;20256;-86
2022/04/27 10:09:29;;;;;;;8.77;8.27;;;;;;;19.95;48.40;92813.16;5088912;28;20206;-88
2022/04/27 10:11:56;;;;;;;8.93;8.23;;;;;;;20.17;48.56;92804.00;5089581;28;20243;-83
2022/04/27 10:14:22;;;;;;;8.90;8.40;;;;;;;20.20;46.53;92798.78;5088361;28;20200;-83
2022/04/27 10:16:49;;;;;;;9.03;8.43;;;;;;;19.60;47.32;92790.78;5088379;28;20242;-80
2022/04/27 10:19:16;;;;;;;8.83;8.20;;;;;;;20.00;47.59;92778.44;5088462;28;20224;-86
2022/04/27 10:21:56;;;;;;;8.40;7.90;;;;;;;20.27;45.93;92777.81;5090920;28;20229;-87
2022/04/27 10:24:51;;;;;;;9.73;8.97;;;;;;;20.39;43.50;92803.53;5084476;28;20205;-83
2022/04/27 10:27:18;;;;;;;8.33;7.87;;;;;;;20.39;44.68;92801.66;5085706;28;20342;-85
2022/04/27 10:30:02;;;;;;;9.20;8.60;;;;;;;20.08;45.42;92793.47;5090566;28;20199;-88
2022/04/27 10:32:42;;;;;;;9.13;8.63;;;;;;;20.44;46.00;92792.69;5090444;28;20219;-86
2022/04/27 10:35:37;;;;;;;9.87;8.87;;;;;;;20.36;45.34;92794.38;5081466;28;20175;-90
2022/04/27 10:38:05;;;;;;;9.77;8.97;;;;;;;20.36;45.71;92801.53;5085766;28;20236;-89
2022/04/27 10:40:37;;;;;;;8.27;7.77;;;;;;;20.71;45.54;92789.34;5096702;28;20214;-89
2022/04/27 10:43:05;;;;;;;8.67;8.17;;;;;;;20.54;45.83;92793.03;5092401;28;20199;-90
2022/04/27 10:45:32;;;;;;;9.05;8.55;;;;;;;20.88;44.35;92769.69;5093025;28;20198;-89
2022/04/27 10:47:57;;;;;;;8.13;7.72;;;;;;;20.81;43.91;92783.53;5092254;28;20223;-83
2022/04/27 10:50:30;;;;;;;8.50;8.00;;;;;;;20.63;45.78;92783.06;5093100;28;20198;-82
2022/04/27 10:52:58;;;;;;;8.90;8.38;;;;;;;20.84;44.66;92758.22;5089503;28;20299;-81
2022/04/27 10:55:35;;;;;;;8.65;8.15;;;;;;;20.88;44.10;92769.69;5092123;28;20189;-86
2022/04/27 10:58:33;;;;;;;7.90;7.50;;;;;;;21.05;42.86;92774.75;5093302;28;20233;-87
2022/04/27 11:00:59;;;;;;;8.02;7.63;;;;;;;20.91;44.63;92769.03;5091442;28;20234;-88
2022/04/27 11:03:26;;;;;;;8.52;8.00;;;;;;;20.89;46.06;92755.34;5092193;28;20182;-81
2022/04/27 11:05:59;;;;;;;9.70;8.95;;;;;;;20.97;45.15;92773.00;5091281;28;20184;-79
2022/04/27 11:08:52;;;;;;;8.80;8.10;;;;;;;21.02;43.71;92759.50;5088973;28;20191;-78
2022/04/27 11:11:18;;;;;;;10.32;9.52;;;;;;;20.93;44.52;92751.66;5088466;28;20232;-85
2022/04/27 11:13:46;;;;;;;8.35;7.80;;;;;;;20.99;45.71;92741.59;5087464;28;20287;-86
2022/04/27 11:16:15;;;;;;;9.18;8.65;;;;;;;21.33;44.91;92748.94;5087932;28;20280;-82
2022/04/27 11:18:59;;;;;;;8.33;7.83;;;;;;;21.32;44.67;92747.41;5088746;28;20219;-86
2022/04/27 11:21:29;;;;;;;9.63;8.80;;;;;;;21.50;45.76;92749.41;5089465;28;20221;-84
2022/04/27 11:23:55;;;;;;;9.07;8.55;;;;;;;21.62;44.38;92735.28;5090207;28;20213;-88
2022/04/27 11:26:21;;;;;;;7.50;7.10;;;;;;;21.52;43.41;92744.53;5092134;28;20284;-88
2022/04/27 11:28:47;;;;;;;8.90;8.40;;;;;;;21.46;43.66;92715.88;5091192;28;20183;-86
2022/04/27 11:31:14;;;;;;;8.10;7.60;;;;;;;21.55;43.32;92733.22;5090594;28;20216;-79
2022/04/27 11:33:40;;;;;;;8.13;7.72;;;;;;;21.54;43.80;92731.66;5092150;28;20193;-85
2022/04/27 11:36:07;;;;;;;10.48;9.57;;;;;;;21.38;44.52;92709.63;5087721;28;20229;-85
2022/04/27 11:38:35;;;;;;;8.77;8.27;;;;;;;21.63;44.84;92726.97;5089602;28;20219;-87
2022/04/27 11:41:02;;;;;;;8.55;8.13;;;;;;;21.55;44.46;92719.16;5090857;28;20236;-84
2022/04/27 11:43:29;;;;;;;8.45;7.68;;;;;;;21.54;43.59;92714.94;5090105;28;20200;-87